Time;durP1;ratioP1;P1;durP2;ratioP2;P2;SDS_P1;SDS_P2;PMS_P1;PMS_P2;Temp;Humidity;BMP_temperature;BMP_pressure;BME280_temperature;BME280_humidity;BME280_pressure;Samples;Min_cycle;Max_cycle;Signal;HPM_P1;HPM_P2
2023/08/25 00:00:12;;;;;;;4.95;2.05;;;20.50;99.90;;;;;;4966543;28;20034;-65
2023/08/25 00:02:39;;;;;;;6.13;2.63;;;20.40;99.90;;;;;;4961129;28;20043;-64
2023/08/25 00:05:11;;;;;;;6.32;2.08;;;20.50;99.90;;;;;;4959957;28;20053;-65
2023/08/25 00:07:43;;;;;;;5.85;2.22;;;20.50;99.90;;;;;;4974594;28;20059;-65
2023/08/25 00:10:15;;;;;;;4.63;2.00;;;20.50;99.90;;;;;;4956732;28;20047;-66
2023/08/25 00:12:42;;;;;;;3.78;2.17;;;20.50;99.90;;;;;;4967567;28;20059;-65
2023/08/25 00:15:14;;;;;;;4.63;2.40;;;20.50;99.90;;;;;;4979813;28;20043;-65
2023/08/25 00:17:46;;;;;;;3.22;2.35;;;20.50;99.90;;;;;;4980921;28;20293;-65
2023/08/25 00:20:18;;;;;;;2.88;2.58;;;20.40;99.90;;;;;;4966923;28;20054;-66
2023/08/25 00:22:50;;;;;;;4.35;2.50;;;20.30;99.90;;;;;;4966674;28;20049;-65
2023/08/25 00:25:22;;;;;;;3.80;2.58;;;20.30;99.90;;;;;;4963355;28;20396;-65
2023/08/25 00:27:54;;;;;;;3.70;2.47;;;20.20;99.90;;;;;;4961161;28;20054;-65
2023/08/25 00:30:26;;;;;;;3.97;2.67;;;20.20;99.90;;;;;;4956765;28;20042;-65
2023/08/25 00:32:54;;;;;;;3.60;2.20;;;20.10;99.90;;;;;;4973698;28;20047;-65
2023/08/25 00:35:26;;;;;;;7.97;2.58;;;20.00;99.90;;;;;;4976448;28;20098;-65
2023/08/25 00:37:58;;;;;;;4.88;2.38;;;20.00;99.90;;;;;;4981546;28;20078;-65
2023/08/25 00:40:36;;;;;;;5.57;2.35;;;20.00;99.90;;;;;;4965641;28;20046;-65
2023/08/25 00:43:08;;;;;;;5.20;2.35;;;20.10;99.90;;;;;;4968944;28;20042;-65
2023/08/25 00:45:41;;;;;;;3.17;2.28;;;20.10;99.90;;;;;;4983246;28;20050;-65
2023/08/25 00:48:12;;;;;;;6.70;2.70;;;20.10;99.90;;;;;;4963634;28;20043;-65
2023/08/25 00:50:45;;;;;;;4.88;2.40;;;20.10;99.90;;;;;;4960150;28;20039;-65
2023/08/25 00:53:17;;;;;;;4.65;2.20;;;20.10;99.90;;;;;;4979022;28;20150;-65
2023/08/25 00:55:44;;;;;;;5.03;2.85;;;20.00;99.90;;;;;;4959036;28;20085;-65
2023/08/25 00:58:17;;;;;;;4.05;2.50;;;20.00;99.90;;;;;;4966420;28;20039;-65
2023/08/25 01:00:44;;;;;;;6.38;2.75;;;20.00;99.90;;;;;;4979996;28;20035;-65
2023/08/25 01:03:16;;;;;;;3.70;2.28;;;20.00;99.90;;;;;;4960595;28;20049;-65
2023/08/25 01:05:48;;;;;;;5.65;2.20;;;19.90;99.90;;;;;;4981833;28;20041;-64
2023/08/25 01:08:21;;;;;;;8.23;2.58;;;19.90;99.90;;;;;;4967346;28;20517;-65
2023/08/25 01:11:05;;;;;;;3.58;2.08;;;19.90;99.90;;;;;;4974991;28;20523;-65
2023/08/25 01:13:59;;;;;;;4.15;2.35;;;19.90;99.90;;;;;;4961226;28;20054;-65
2023/08/25 01:16:39;;;;;;;5.65;2.13;;;19.90;99.90;;;;;;4960324;28;20049;-64
2023/08/25 01:19:44;;;;;;;3.92;2.63;;;19.90;99.90;;;;;;4958584;28;20047;-65
2023/08/25 01:22:28;;;;;;;3.55;2.28;;;20.00;99.90;;;;;;4982390;28;20043;-65
2023/08/25 01:25:19;;;;;;;6.53;2.45;;;20.00;99.90;;;;;;4963523;28;20047;-65
2023/08/25 01:27:52;;;;;;;4.60;2.50;;;20.00;99.90;;;;;;4961734;28;20039;-66
2023/08/25 01:30:26;;;;;;;3.55;2.33;;;20.10;99.90;;;;;;4964518;28;20050;-66
2023/08/25 01:33:03;;;;;;;3.35;2.30;;;20.10;99.90;;;;;;4966166;28;20406;-65
2023/08/25 01:36:08;;;;;;;4.88;2.03;;;20.10;99.90;;;;;;4959332;28;20396;-67
2023/08/25 01:38:40;;;;;;;5.18;2.63;;;20.10;99.90;;;;;;4972870;28;20035;-64
2023/08/25 01:41:48;;;;;;;6.35;2.75;;;20.10;99.90;;;;;;4959769;28;20046;-64
2023/08/25 01:44:19;;;;;;;4.20;2.35;;;20.10;99.90;;;;;;4975534;28;20070;-65
2023/08/25 01:46:54;;;;;;;5.30;2.53;;;20.00;99.90;;;;;;4962553;28;20043;-65
2023/08/25 01:49:29;;;;;;;5.63;2.65;;;20.00;99.90;;;;;;4976931;28;20482;-65
2023/08/25 01:52:02;;;;;;;7.22;3.60;;;19.90;99.90;;;;;;4958495;28;20142;-65
2023/08/25 01:54:35;;;;;;;6.78;2.60;;;19.80;99.90;;;;;;4980859;28;20516;-65
2023/08/25 01:57:07;;;;;;;4.78;2.83;;;19.80;99.90;;;;;;4970061;28;20043;-65
2023/08/25 01:59:39;;;;;;;6.85;2.25;;;19.80;99.90;;;;;;4962685;28;20043;-65
2023/08/25 02:02:10;;;;;;;7.38;2.97;;;19.70;99.90;;;;;;4975891;28;20054;-65
2023/08/25 02:04:43;;;;;;;3.22;2.20;;;19.80;99.90;;;;;;4978770;28;20070;-65
2023/08/25 02:07:10;;;;;;;2.80;2.22;;;19.80;99.90;;;;;;4978360;28;20045;-65
2023/08/25 02:09:42;;;;;;;3.58;2.40;;;19.80;99.90;;;;;;4984081;28;20040;-65
2023/08/25 02:12:13;;;;;;;7.18;2.40;;;19.80;99.90;;;;;;4967634;28;20420;-65
2023/08/25 02:14:45;;;;;;;6.13;3.03;;;19.80;99.90;;;;;;4979214;28;20112;-65
2023/08/25 02:17:17;;;;;;;3.67;2.47;;;19.70;99.90;;;;;;4978525;28;20105;-65
2023/08/25 02:19:49;;;;;;;4.75;2.45;;;19.70;99.90;;;;;;4957185;28;20046;-65
2023/08/25 02:22:20;;;;;;;7.28;2.38;;;19.80;99.90;;;;;;4963436;28;20043;-65
2023/08/25 02:24:53;;;;;;;5.35;3.15;;;19.80;99.90;;;;;;4962785;28;20066;-65
2023/08/25 02:27:25;;;;;;;2.72;2.25;;;19.80;99.90;;;;;;4962336;28;20035;-65
2023/08/25 02:29:57;;;;;;;6.40;2.63;;;19.80;99.90;;;;;;4963220;28;20039;-65
2023/08/25 02:32:29;;;;;;;5.07;2.70;;;19.70;99.90;;;;;;4965451;28;20046;-65
2023/08/25 02:35:03;;;;;;;10.40;2.53;;;19.70;99.90;;;;;;4966804;28;20049;-66
2023/08/25 02:37:55;;;;;;;3.30;2.10;;;19.70;99.90;;;;;;4963313;28;20039;-65
2023/08/25 02:40:27;;;;;;;2.80;2.25;;;19.60;99.90;;;;;;4960021;28;20043;-65
2023/08/25 02:42:55;;;;;;;4.25;2.30;;;19.70;99.90;;;;;;4988219;28;20571;-65
2023/08/25 02:45:27;;;;;;;10.98;3.40;;;19.60;99.90;;;;;;4965482;28;20081;-65
2023/08/25 02:47:59;;;;;;;3.28;2.40;;;19.70;99.90;;;;;;4963032;28;20051;-65
2023/08/25 02:50:33;;;;;;;7.55;2.45;;;19.60;99.90;;;;;;4963489;28;20062;-65
2023/08/25 02:53:05;;;;;;;;;;;19.60;99.90;;;;;;4978051;28;20035;-65
2023/08/25 02:55:34;;;;;;;2.50;1.98;;;19.70;99.90;;;;;;4963437;28;19977;-65
2023/08/25 02:58:06;;;;;;;3.28;1.85;;;19.70;99.90;;;;;;4980651;28;20058;-65
2023/08/25 03:00:38;;;;;;;6.65;2.20;;;19.80;99.90;;;;;;4976867;28;20416;-65
2023/08/25 03:03:09;;;;;;;3.10;2.00;;;19.80;99.90;;;;;;4980108;28;20519;-65
2023/08/25 03:05:41;;;;;;;3.20;1.80;;;19.80;99.90;;;;;;4955782;28;20508;-65
2023/08/25 03:08:15;;;;;;;3.10;1.85;;;19.80;99.90;;;;;;4962502;28;20734;-66
2023/08/25 03:10:43;;;;;;;4.65;1.73;;;19.70;99.90;;;;;;4977029;28;20051;-65
2023/08/25 03:13:15;;;;;;;6.53;2.20;;;19.70;99.90;;;;;;4993300;23;20061;-64
2023/08/25 03:15:52;;;;;;;5.22;2.00;;;19.70;99.90;;;;;;5005866;28;20130;-64
2023/08/25 03:18:24;;;;;;;4.88;2.13;;;19.80;99.90;;;;;;4985172;28;20062;-65
2023/08/25 03:20:56;;;;;;;2.58;1.80;;;19.80;99.90;;;;;;4991422;28;20038;-65
2023/08/25 03:23:28;;;;;;;3.75;1.70;;;19.80;99.90;;;;;;4975790;28;20042;-66
2023/08/25 03:25:55;;;;;;;4.22;1.85;;;19.80;99.90;;;;;;4972092;28;20077;-65
2023/08/25 03:28:27;;;;;;;5.18;2.30;;;19.80;99.90;;;;;;4972863;28;20053;-66
2023/08/25 03:30:59;;;;;;;4.85;2.30;;;19.80;99.90;;;;;;4953541;28;20050;-65
2023/08/25 03:33:32;;;;;;;2.63;1.98;;;19.70;99.90;;;;;;4972220;28;20057;-66
2023/08/25 03:35:58;;;;;;;2.38;2.03;;;19.70;99.90;;;;;;4971760;28;20089;-66
2023/08/25 03:38:32;;;;;;;4.82;1.92;;;19.70;99.90;;;;;;4986825;28;20043;-65
2023/08/25 03:41:04;;;;;;;4.15;2.08;;;19.70;99.90;;;;;;4954753;28;20106;-66
2023/08/25 03:43:36;;;;;;;3.30;2.00;;;19.70;99.90;;;;;;4973237;28;20050;-66
2023/08/25 03:46:08;;;;;;;5.00;2.20;;;19.80;99.90;;;;;;4970645;28;20049;-66
2023/08/25 03:48:35;;;;;;;2.78;1.90;;;19.80;99.90;;;;;;4972124;28;20302;-66
2023/08/25 03:51:07;;;;;;;3.83;1.88;;;19.80;99.90;;;;;;4985418;28;20065;-65
2023/08/25 03:53:38;;;;;;;4.53;1.92;;;19.80;99.90;;;;;;4980357;28;20053;-65
2023/08/25 03:56:10;;;;;;;4.13;1.75;;;19.90;99.90;;;;;;4981341;28;20057;-66
2023/08/25 03:58:42;;;;;;;3.65;2.60;;;19.90;99.90;;;;;;4972934;28;20419;-64
2023/08/25 04:01:15;;;;;;;2.63;1.50;;;19.90;99.90;;;;;;4986942;28;20051;-66
2023/08/25 04:03:47;;;;;;;5.55;2.20;;;19.90;99.90;;;;;;4969555;28;20043;-65
2023/08/25 04:06:20;;;;;;;;;;;19.90;99.90;;;;;;4986837;28;20069;-65
2023/08/25 04:08:52;;;;;;;3.25;1.98;;;19.90;99.90;;;;;;4969948;28;19926;-66
2023/08/25 04:11:23;;;;;;;3.90;1.92;;;19.90;99.90;;;;;;4971242;28;20070;-65
2023/08/25 04:13:56;;;;;;;5.87;1.70;;;19.90;99.90;;;;;;4971269;28;20535;-66
2023/08/25 04:16:28;;;;;;;2.80;1.85;;;20.00;99.90;;;;;;4969901;28;20063;-66
2023/08/25 04:19:00;;;;;;;3.90;2.17;;;19.90;99.90;;;;;;4968086;28;20130;-66
2023/08/25 04:21:29;;;;;;;2.92;1.98;;;19.80;99.90;;;;;;4981097;28;20046;-66
2023/08/25 04:24:01;;;;;;;4.95;2.20;;;19.70;99.90;;;;;;4972334;28;20523;-66
2023/08/25 04:26:33;;;;;;;5.78;2.42;;;19.70;99.90;;;;;;4966315;28;20053;-66
2023/08/25 04:29:06;;;;;;;6.00;2.33;;;19.70;99.90;;;;;;4985556;28;20503;-66
2023/08/25 04:31:38;;;;;;;3.70;1.90;;;19.80;99.90;;;;;;4970942;28;20050;-66
2023/08/25 04:34:17;;;;;;;3.13;1.88;;;19.80;99.90;;;;;;4962979;28;20055;-65
2023/08/25 04:36:45;;;;;;;3.33;1.90;;;19.80;99.90;;;;;;4970781;28;20049;-66
2023/08/25 04:39:17;;;;;;;3.97;1.88;;;19.80;99.90;;;;;;4974675;28;20046;-66
2023/08/25 04:41:49;;;;;;;4.00;1.98;;;19.90;99.90;;;;;;4970728;28;20138;-66
2023/08/25 04:44:16;;;;;;;2.72;1.85;;;19.90;99.90;;;;;;4970831;28;20047;-66
2023/08/25 04:46:43;;;;;;;4.38;2.85;;;19.90;99.90;;;;;;4985255;28;20082;-65
2023/08/25 04:49:15;;;;;;;8.02;2.75;;;19.90;99.90;;;;;;4985007;28;20401;-65
2023/08/25 04:51:48;;;;;;;5.15;2.25;;;19.80;99.90;;;;;;4970677;28;20062;-66
2023/08/25 04:54:20;;;;;;;5.40;3.33;;;19.70;99.90;;;;;;4970527;28;20038;-66
2023/08/25 04:56:54;;;;;;;3.17;2.10;;;19.70;99.90;;;;;;4983902;28;20042;-66
2023/08/25 04:59:27;;;;;;;2.33;2.05;;;19.70;99.90;;;;;;4955439;28;20039;-66
2023/08/25 05:01:58;;;;;;;3.53;2.08;;;19.80;99.90;;;;;;4971750;28;20049;-66
2023/08/25 05:04:30;;;;;;;2.40;1.77;;;19.80;99.90;;;;;;4983818;28;20035;-66
2023/08/25 05:07:03;;;;;;;5.07;2.20;;;19.90;99.90;;;;;;4971344;28;20125;-66
2023/08/25 05:09:31;;;;;;;4.28;2.08;;;19.80;99.90;;;;;;4970441;28;20035;-66
2023/08/25 05:11:58;;;;;;;4.93;2.00;;;19.80;99.90;;;;;;4970290;28;20050;-66
2023/08/25 05:14:32;;;;;;;4.38;1.90;;;19.90;99.90;;;;;;4969933;28;20042;-66
2023/08/25 05:17:05;;;;;;;3.83;2.13;;;19.80;99.90;;;;;;4968163;28;20042;-66
2023/08/25 05:19:37;;;;;;;4.65;1.98;;;19.80;99.90;;;;;;4969411;28;20046;-66
2023/08/25 05:22:08;;;;;;;4.55;2.95;;;19.80;99.90;;;;;;4973246;28;20519;-66
2023/08/25 05:24:41;;;;;;;2.45;2.10;;;19.80;99.90;;;;;;4970448;28;20050;-66
2023/08/25 05:27:13;;;;;;;2.80;1.98;;;19.80;99.90;;;;;;4983842;28;20534;-66
2023/08/25 05:29:45;;;;;;;4.10;2.20;;;19.80;99.90;;;;;;4970333;28;20039;-66
2023/08/25 05:32:20;;;;;;;4.68;2.22;;;19.80;99.90;;;;;;4979310;28;20125;-66
2023/08/25 05:35:11;;;;;;;3.20;1.88;;;19.90;99.90;;;;;;4971013;28;20427;-66
2023/08/25 05:37:40;;;;;;;6.75;2.38;;;19.90;99.90;;;;;;4971472;28;20598;-65
2023/08/25 05:40:07;;;;;;;4.45;2.08;;;20.00;99.90;;;;;;4974912;28;20050;-66
2023/08/25 05:42:42;;;;;;;5.43;2.55;;;20.00;99.90;;;;;;4980568;28;20038;-66
2023/08/25 05:45:14;;;;;;;7.82;2.97;;;20.10;99.90;;;;;;4978767;28;20046;-66
2023/08/25 05:47:46;;;;;;;4.10;2.13;;;20.10;99.90;;;;;;4973501;28;20123;-66
2023/08/25 05:50:13;;;;;;;4.13;2.08;;;20.10;99.90;;;;;;4973939;28;20519;-65
2023/08/25 05:52:47;;;;;;;2.47;2.00;;;20.10;99.90;;;;;;4971388;28;20034;-66
2023/08/25 05:55:14;;;;;;;3.08;2.10;;;20.10;99.90;;;;;;4973805;28;20757;-65
2023/08/25 05:57:46;;;;;;;7.38;2.17;;;20.20;99.90;;;;;;4975295;28;20039;-66
2023/08/25 06:00:18;;;;;;;3.03;2.15;;;20.20;99.90;;;;;;4986365;28;20540;-66
2023/08/25 06:02:50;;;;;;;5.78;3.63;;;20.20;99.90;;;;;;4975010;28;20629;-66
2023/08/25 06:05:17;;;;;;;2.75;1.90;;;20.20;99.90;;;;;;4974614;28;20503;-64
2023/08/25 06:07:49;;;;;;;2.28;2.05;;;20.20;99.90;;;;;;4973245;28;20396;-66
2023/08/25 06:10:20;;;;;;;5.40;2.03;;;20.20;99.90;;;;;;4971301;28;20043;-65
2023/08/25 06:12:52;;;;;;;7.78;2.55;;;20.30;99.90;;;;;;4972135;28;20043;-66
2023/08/25 06:15:26;;;;;;;4.18;1.95;;;20.40;99.90;;;;;;4974482;28;20214;-65
2023/08/25 06:17:52;;;;;;;6.53;3.58;;;20.50;99.90;;;;;;4989477;28;20038;-66
2023/08/25 06:20:24;;;;;;;2.50;1.83;;;20.60;99.90;;;;;;4986167;28;20051;-65
2023/08/25 06:22:57;;;;;;;6.72;2.50;;;20.70;99.90;;;;;;4973178;28;20050;-66
2023/08/25 06:25:29;;;;;;;5.07;2.08;;;20.80;99.90;;;;;;4974528;28;20042;-66
2023/08/25 06:28:01;;;;;;;4.25;2.22;;;21.00;99.90;;;;;;4974090;28;20073;-65
2023/08/25 06:30:33;;;;;;;6.15;2.08;;;21.10;99.90;;;;;;4974406;28;20415;-66
2023/08/25 06:33:04;;;;;;;3.03;2.20;;;21.30;99.90;;;;;;4980591;28;20050;-66
2023/08/25 06:35:41;;;;;;;2.38;1.80;;;21.30;99.90;;;;;;4974264;28;20053;-65
2023/08/25 06:38:12;;;;;;;3.03;1.52;;;21.40;99.90;;;;;;4973668;28;20046;-65
2023/08/25 06:40:44;;;;;;;2.60;2.17;;;21.50;99.90;;;;;;4988613;28;20053;-65
2023/08/25 06:43:16;;;;;;;3.97;2.13;;;21.50;99.90;;;;;;4972945;28;20527;-66
2023/08/25 06:45:48;;;;;;;2.45;1.98;;;21.50;99.90;;;;;;4971630;28;20050;-66
2023/08/25 06:48:20;;;;;;;4.00;1.90;;;21.60;99.90;;;;;;4974087;28;20039;-66
2023/08/25 06:50:52;;;;;;;2.60;1.85;;;21.50;99.90;;;;;;4973361;28;20542;-66
2023/08/25 06:53:24;;;;;;;4.65;1.88;;;21.60;99.90;;;;;;4979074;28;20043;-66
2023/08/25 06:55:56;;;;;;;3.10;2.13;;;21.60;99.90;;;;;;4972375;28;20517;-64
2023/08/25 06:58:28;;;;;;;4.53;2.33;;;21.60;99.90;;;;;;4971398;28;20567;-64
2023/08/25 07:01:00;;;;;;;3.05;2.20;;;21.70;99.90;;;;;;4973818;28;20400;-64
2023/08/25 07:03:32;;;;;;;4.07;2.10;;;21.70;99.90;;;;;;4979033;28;20046;-63
2023/08/25 07:06:05;;;;;;;2.95;2.25;;;21.60;99.90;;;;;;4970872;28;20039;-64
2023/08/25 07:08:36;;;;;;;6.10;2.28;;;21.60;99.90;;;;;;4973452;28;20436;-62
2023/08/25 07:11:08;;;;;;;4.10;2.28;;;21.50;99.90;;;;;;4973809;28;20050;-63
2023/08/25 07:13:40;;;;;;;3.15;2.00;;;21.40;99.90;;;;;;4973525;28;20049;-64
2023/08/25 07:16:13;;;;;;;3.28;2.30;;;21.40;99.90;;;;;;4972417;28;20573;-64
2023/08/25 07:18:45;;;;;;;2.30;2.10;;;21.40;99.90;;;;;;4975826;28;20463;-64
2023/08/25 07:21:16;;;;;;;4.22;2.17;;;21.50;99.90;;;;;;4972201;28;20305;-63
2023/08/25 07:23:43;;;;;;;5.65;2.45;;;21.60;99.90;;;;;;4973294;28;20620;-64
2023/08/25 07:26:15;;;;;;;3.15;2.17;;;21.70;99.90;;;;;;4972298;28;20059;-64
2023/08/25 07:28:47;;;;;;;2.83;2.53;;;21.70;99.90;;;;;;4973326;28;20043;-64
2023/08/25 07:31:19;;;;;;;2.72;2.08;;;21.80;99.90;;;;;;4971103;28;20050;-64
2023/08/25 07:33:50;;;;;;;3.50;2.75;;;22.00;99.90;;;;;;4972056;28;20407;-64
2023/08/25 07:36:22;;;;;;;3.28;2.20;;;22.00;99.90;;;;;;4973182;28;20053;-64
2023/08/25 07:38:54;;;;;;;4.82;3.45;;;22.10;99.90;;;;;;4973019;28;20042;-63
2023/08/25 07:41:26;;;;;;;3.05;2.40;;;22.20;99.90;;;;;;4978726;28;20427;-64
2023/08/25 07:43:58;;;;;;;3.08;2.35;;;22.30;99.90;;;;;;4971033;28;20432;-64
2023/08/25 07:46:35;;;;;;;5.57;2.40;;;22.40;99.90;;;;;;4970472;28;20130;-64
2023/08/25 07:49:10;;;;;;;4.82;2.72;;;22.50;99.90;;;;;;4986300;28;20039;-65
2023/08/25 07:51:42;;;;;;;4.32;2.40;;;22.60;99.90;;;;;;4970223;28;20400;-66
2023/08/25 07:54:13;;;;;;;4.28;2.85;;;22.60;99.90;;;;;;4971866;28;20055;-66
2023/08/25 07:56:40;;;;;;;6.28;2.85;;;22.50;99.90;;;;;;4971315;28;20480;-66
2023/08/25 07:59:12;;;;;;;3.42;2.60;;;22.50;99.90;;;;;;4972799;28;20046;-65
2023/08/25 08:01:45;;;;;;;3.38;2.47;;;22.40;99.90;;;;;;4971821;28;20057;-65
2023/08/25 08:04:17;;;;;;;3.90;2.83;;;22.40;99.90;;;;;;4972885;28;20057;-66
2023/08/25 08:06:49;;;;;;;4.82;2.72;;;22.30;99.90;;;;;;4971090;28;20521;-65
2023/08/25 08:09:17;;;;;;;4.28;2.83;;;22.30;99.90;;;;;;4972145;28;20093;-65
2023/08/25 08:11:49;;;;;;;;;;;22.30;99.90;;;;;;4978423;28;20051;-68
2023/08/25 08:14:21;;;;;;;6.78;3.22;;;22.30;99.90;;;;;;4972595;28;20459;-65
2023/08/25 08:16:52;;;;;;;7.78;3.38;;;22.20;99.90;;;;;;4972309;28;20145;-66
2023/08/25 08:19:24;;;;;;;4.22;2.78;;;22.20;99.90;;;;;;4971043;28;20138;-66
2023/08/25 08:21:57;;;;;;;4.50;3.20;;;22.10;99.90;;;;;;4969721;28;20054;-66
2023/08/25 08:24:29;;;;;;;7.45;2.85;;;22.10;99.90;;;;;;4972594;28;20049;-67
2023/08/25 08:27:01;;;;;;;4.75;3.33;;;21.90;99.90;;;;;;4971474;28;20058;-66
2023/08/25 08:29:32;;;;;;;5.97;4.50;;;21.70;99.90;;;;;;4971494;28;20050;-66
2023/08/25 08:32:04;;;;;;;4.13;3.72;;;21.50;99.90;;;;;;4971277;28;20046;-66
2023/08/25 08:34:36;;;;;;;5.35;4.00;;;21.40;99.90;;;;;;4971170;28;20042;-67
2023/08/25 08:37:09;;;;;;;6.43;4.00;;;21.40;99.90;;;;;;4972164;28;20043;-67
2023/08/25 08:39:41;;;;;;;7.50;4.13;;;21.30;99.90;;;;;;4970189;28;20050;-66
2023/08/25 08:42:14;;;;;;;7.03;4.82;;;21.30;99.90;;;;;;4972202;28;20039;-67
2023/08/25 08:44:48;;;;;;;7.32;4.30;;;21.30;99.90;;;;;;4972040;28;20066;-66
2023/08/25 08:47:16;;;;;;;5.72;4.20;;;21.40;99.90;;;;;;4971865;28;20133;-66
2023/08/25 08:49:50;;;;;;;5.20;4.03;;;21.40;99.90;;;;;;4970908;28;20046;-66
2023/08/25 08:52:22;;;;;;;8.75;4.05;;;21.50;99.90;;;;;;4979372;28;20049;-66
2023/08/25 08:54:57;;;;;;;8.98;4.47;;;21.50;99.90;;;;;;4972010;28;20515;-66
2023/08/25 08:57:28;;;;;;;5.88;4.82;;;21.50;99.90;;;;;;4971758;28;20035;-66
2023/08/25 09:00:03;;;;;;;6.78;4.05;;;21.50;99.90;;;;;;4970610;28;20503;-66
2023/08/25 09:02:36;;;;;;;5.78;4.72;;;21.60;99.90;;;;;;4971296;28;20042;-66
2023/08/25 09:05:08;;;;;;;8.40;4.68;;;21.70;99.90;;;;;;4969360;28;20047;-66
2023/08/25 09:07:40;;;;;;;6.00;4.28;;;21.80;99.90;;;;;;4971423;28;20047;-66
2023/08/25 09:10:12;;;;;;;6.82;4.03;;;21.90;99.90;;;;;;4986164;28;20038;-66
2023/08/25 09:12:44;;;;;;;6.95;4.28;;;22.00;99.90;;;;;;4969155;28;20067;-66
2023/08/25 09:15:26;;;;;;;10.55;6.43;;;22.10;99.90;;;;;;4971808;28;20407;-65
2023/08/25 09:18:03;;;;;;;7.90;6.20;;;22.10;99.90;;;;;;4971476;28;20528;-66
2023/08/25 09:20:39;;;;;;;7.18;4.65;;;22.30;99.90;;;;;;4970928;28;20035;-66
2023/08/25 09:23:11;;;;;;;4.72;3.97;;;22.40;99.90;;;;;;4970744;28;20047;-66
2023/08/25 09:25:42;;;;;;;6.05;4.70;;;22.60;99.90;;;;;;4971508;28;20216;-66
2023/08/25 09:28:09;;;;;;;6.78;4.10;;;22.70;99.90;;;;;;4968569;28;20105;-66
2023/08/25 09:30:42;;;;;;;4.55;3.78;;;22.70;99.90;;;;;;4990468;23;20038;-67
2023/08/25 09:33:14;;;;;;;;;;;22.80;99.90;;;;;;5003350;28;20130;-67
2023/08/25 09:35:41;;;;;;;5.22;3.67;;;22.90;99.90;;;;;;5002195;28;20036;-68
2023/08/25 09:38:21;;;;;;;3.75;3.30;;;23.20;99.90;;;;;;4999337;28;20134;-66
2023/08/25 09:40:53;;;;;;;4.72;3.90;;;23.40;99.90;;;;;;4997942;28;20129;-65
2023/08/25 09:43:33;;;;;;;5.18;3.55;;;23.60;99.90;;;;;;4997214;28;20558;-65
2023/08/25 09:46:08;;;;;;;6.15;3.38;;;23.80;99.90;;;;;;4996846;28;20530;-65
2023/08/25 09:48:40;;;;;;;6.82;3.17;;;24.00;99.90;;;;;;4976640;28;20844;-65
2023/08/25 09:51:16;;;;;;;4.72;2.92;;;24.10;99.90;;;;;;5002695;28;20057;-65
2023/08/25 09:53:50;;;;;;;5.05;3.10;;;24.20;99.90;;;;;;4992310;28;20125;-65
2023/08/25 09:56:22;;;;;;;5.30;3.22;;;24.30;99.90;;;;;;4994189;28;20962;-65
2023/08/25 09:58:54;;;;;;;8.15;4.25;;;24.40;99.90;;;;;;4996777;28;20038;-65
2023/08/25 10:01:25;;;;;;;5.28;3.10;;;24.50;99.90;;;;;;4979773;28;20483;-65
2023/08/25 10:03:53;;;;;;;3.88;3.00;;;24.50;99.90;;;;;;5000590;28;20046;-65
2023/08/25 10:06:28;;;;;;;3.55;2.83;;;24.60;99.90;;;;;;4997499;28;20046;-65
2023/08/25 10:09:01;;;;;;;5.93;3.03;;;24.70;99.90;;;;;;5003478;28;20045;-65
2023/08/25 10:11:38;;;;;;;5.22;2.97;;;24.80;99.90;;;;;;4994091;28;20133;-65
2023/08/25 10:14:12;;;;;;;5.50;3.33;;;24.90;99.90;;;;;;4996378;28;20050;-65
2023/08/25 10:16:52;;;;;;;5.93;3.88;;;25.00;99.90;;;;;;4998810;28;20034;-65
2023/08/25 10:19:31;;;;;;;5.50;3.63;;;25.20;99.90;;;;;;4995793;28;20060;-65
2023/08/25 10:22:06;;;;;;;5.63;3.85;;;25.10;99.90;;;;;;4996740;28;20634;-65
2023/08/25 10:24:38;;;;;;;3.60;2.70;;;25.10;99.90;;;;;;5000720;28;20053;-65
2023/08/25 10:27:11;;;;;;;9.23;3.08;;;25.20;99.90;;;;;;5001930;28;20046;-66
2023/08/25 10:29:38;;;;;;;4.25;2.85;;;25.10;99.90;;;;;;5000141;28;20503;-65
2023/08/25 10:32:09;;;;;;;6.25;3.13;;;25.10;99.90;;;;;;4996945;28;20514;-65
2023/08/25 10:34:46;;;;;;;6.22;3.08;;;25.10;99.90;;;;;;4994762;28;20042;-65
2023/08/25 10:37:25;;;;;;;5.05;2.72;;;25.20;99.90;;;;;;4991037;28;20798;-65
2023/08/25 10:40:01;;;;;;;2.85;2.63;;;25.20;99.90;;;;;;4992689;28;20046;-65
2023/08/25 10:42:35;;;;;;;3.80;2.63;;;25.20;99.90;;;;;;5000162;28;20053;-66
2023/08/25 10:45:11;;;;;;;2.78;2.28;;;25.20;99.90;;;;;;5000536;28;20049;-65
2023/08/25 10:47:46;;;;;;;3.63;2.25;;;25.30;99.90;;;;;;5008350;28;20046;-66
2023/08/25 10:50:22;;;;;;;4.35;2.42;;;25.30;99.90;;;;;;5001252;28;20042;-65
2023/08/25 10:52:55;;;;;;;3.33;2.45;;;25.20;99.90;;;;;;4985753;28;20569;-65
2023/08/25 10:55:26;;;;;;;5.25;2.60;;;25.20;99.90;;;;;;5003822;28;20514;-65
2023/08/25 10:58:01;;;;;;;2.78;1.88;;;25.20;99.90;;;;;;4998581;28;20041;-65
2023/08/25 11:00:34;;;;;;;3.97;2.20;;;25.30;99.90;;;;;;4994468;28;20057;-66
2023/08/25 11:03:06;;;;;;;;;;;25.50;99.90;;;;;;5011013;28;20107;-65
2023/08/25 11:05:43;;;;;;;4.80;3.47;;;25.80;99.90;;;;;;5004215;28;20010;-65
2023/08/25 11:08:26;;;;;;;3.65;2.33;;;26.00;99.90;;;;;;4999294;28;20103;-65
2023/08/25 11:11:12;;;;;;;3.15;2.15;;;26.20;99.90;;;;;;5001791;28;20036;-67
2023/08/25 11:13:44;;;;;;;5.38;2.70;;;26.40;99.90;;;;;;5002607;28;20031;-68
2023/08/25 11:16:13;;;;;;;3.42;2.85;;;26.60;99.90;;;;;;4997895;28;20133;-67
2023/08/25 11:18:45;;;;;;;3.80;2.08;;;26.60;99.90;;;;;;4996433;28;20038;-67
2023/08/25 11:21:16;;;;;;;2.45;2.10;;;26.70;99.90;;;;;;5000325;28;20053;-67
2023/08/25 11:23:48;;;;;;;6.75;2.50;;;26.70;99.90;;;;;;4994761;28;20042;-67
2023/08/25 11:26:20;;;;;;;4.10;2.17;;;26.70;99.90;;;;;;5000798;28;20049;-67
2023/08/25 11:28:53;;;;;;;3.45;2.28;;;26.60;99.90;;;;;;5004404;28;20093;-67
2023/08/25 11:31:26;;;;;;;4.32;2.47;;;26.60;99.90;;;;;;4987766;28;20525;-67
2023/08/25 11:33:57;;;;;;;3.50;2.33;;;26.50;99.90;;;;;;5000492;28;20038;-68
2023/08/25 11:36:29;;;;;;;4.95;2.13;;;26.60;99.90;;;;;;5002559;28;20424;-67
2023/08/25 11:39:01;;;;;;;4.00;2.22;;;26.60;99.90;;;;;;4995689;28;20046;-67
2023/08/25 11:41:33;;;;;;;3.88;2.20;;;26.60;99.90;;;;;;4998687;28;20052;-67
2023/08/25 11:44:05;;;;;;;3.33;1.92;;;26.50;99.90;;;;;;4993087;28;20046;-67
2023/08/25 11:46:37;;;;;;;3.03;2.10;;;26.20;99.90;;;;;;4994207;28;20347;-67
2023/08/25 11:49:09;;;;;;;3.05;2.00;;;26.10;99.90;;;;;;4998082;28;20051;-67
2023/08/25 11:51:36;;;;;;;3.30;2.13;;;26.00;99.90;;;;;;5005764;28;20072;-67
2023/08/25 11:54:08;;;;;;;2.70;2.30;;;26.00;99.90;;;;;;4984894;28;20038;-67
2023/08/25 11:56:49;;;;;;;3.83;2.70;;;26.00;99.90;;;;;;5000753;28;20113;-67
2023/08/25 11:59:21;;;;;;;4.22;2.50;;;26.10;99.90;;;;;;5000703;28;20050;-67
2023/08/25 12:01:49;;;;;;;2.83;2.47;;;26.10;99.90;;;;;;4996319;28;20057;-67
2023/08/25 12:04:25;;;;;;;3.97;2.85;;;26.20;99.90;;;;;;4994612;28;20046;-66
2023/08/25 12:06:57;;;;;;;5.50;2.47;;;26.20;99.90;;;;;;5002195;28;20060;-67
2023/08/25 12:09:30;;;;;;;3.55;2.42;;;26.30;99.90;;;;;;4990983;28;20042;-67
2023/08/25 12:12:03;;;;;;;2.90;2.70;;;26.40;99.90;;;;;;4996314;28;20042;-67
2023/08/25 12:14:38;;;;;;;4.03;2.80;;;26.40;99.90;;;;;;5003891;28;20042;-67
2023/08/25 12:17:04;;;;;;;3.65;3.17;;;26.60;99.90;;;;;;5000092;28;20529;-67
2023/08/25 12:19:36;;;;;;;3.47;3.10;;;26.60;99.90;;;;;;5001741;28;20100;-68
2023/08/25 12:22:08;;;;;;;4.72;2.33;;;26.50;99.90;;;;;;5004923;28;20046;-67
2023/08/25 12:24:35;;;;;;;3.95;2.45;;;26.50;99.90;;;;;;5003675;28;20042;-67
2023/08/25 12:27:07;;;;;;;4.88;2.65;;;26.50;99.90;;;;;;4980870;28;20061;-68
2023/08/25 12:29:39;;;;;;;2.72;2.53;;;26.50;99.90;;;;;;4990893;28;20044;-67
2023/08/25 12:32:11;;;;;;;3.10;2.30;;;26.60;99.90;;;;;;4992579;28;20038;-68
2023/08/25 12:34:43;;;;;;;3.43;1.87;;;26.70;99.90;;;;;;4996253;28;20634;-67
2023/08/25 12:37:15;;;;;;;3.22;2.42;;;26.90;99.90;;;;;;5004384;28;20045;-67
2023/08/25 12:39:46;;;;;;;4.10;2.65;;;26.80;99.90;;;;;;5002421;28;20049;-67
2023/08/25 12:42:18;;;;;;;2.88;2.40;;;26.70;99.90;;;;;;4998515;28;20042;-67
2023/08/25 12:44:50;;;;;;;4.35;3.00;;;26.70;99.90;;;;;;5004494;28;20038;-67
2023/08/25 12:47:22;;;;;;;4.78;2.83;;;26.70;99.90;;;;;;4997235;28;20442;-67
2023/08/25 12:49:54;;;;;;;5.40;3.40;;;26.60;99.90;;;;;;4991855;28;20070;-67
2023/08/25 12:52:21;;;;;;;3.95;3.13;;;26.60;99.90;;;;;;4993377;28;20048;-67
2023/08/25 12:54:53;;;;;;;3.73;2.97;;;26.60;99.90;;;;;;4993893;28;20447;-67
2023/08/25 12:57:25;;;;;;;7.72;4.25;;;26.60;99.90;;;;;;4997908;28;20046;-67
2023/08/25 12:59:51;;;;;;;6.82;2.83;;;26.50;99.90;;;;;;4999543;28;20391;-68
2023/08/25 13:02:23;;;;;;;4.90;3.23;;;26.50;99.90;;;;;;5001913;28;20056;-67
2023/08/25 13:04:56;;;;;;;7.05;3.85;;;26.40;99.90;;;;;;4998498;28;20046;-66
2023/08/25 13:07:28;;;;;;;4.80;2.88;;;26.40;99.90;;;;;;4998023;28;20068;-67
2023/08/25 13:10:00;;;;;;;7.50;4.18;;;26.40;99.90;;;;;;5001994;28;20042;-67
2023/08/25 13:12:33;;;;;;;9.65;4.65;;;26.40;99.90;;;;;;4997654;28;20096;-66
2023/08/25 13:15:07;;;;;;;4.80;3.60;;;26.30;99.90;;;;;;4990631;28;20062;-67